Friday, April 27, 2018, 2:42 AM EDT
Back to Local

KFDK, Frederick, Frederick Municipal Airport

Location: Frederick, MD, United States Lat: 39.417
Local Time: 2:42 AM EDT ( 6:42 GMT) Lon: -77.374
Time Zone: US/Eastern Elev: 301 ft

Show me the last for .
Show Decoded

2018-04-26 16:47 METAR KFDK 262047Z 29008G14KT 10SM SKC 20/M03 A2986 =
2018-04-26 15:47 METAR KFDK 261947Z 28008G14KT 10SM SKC 19/M01 A2987 =
2018-04-26 14:47 METAR KFDK 261847Z 31009G14KT 10SM SKC 19/M01 A2989 =
2018-04-26 13:47 METAR KFDK 261747Z 31009G14KT 10SM SKC 18/M01 A2990 =
2018-04-26 12:47 METAR KFDK 261647Z 28011G18KT 10SM SKC 16/01 A2991 =
2018-04-26 11:48 METAR KFDK 261548Z 28011G16KT 10SM SKC 15/02 A2992 =
2018-04-26 10:48 METAR KFDK 261448Z 30011KT 10SM SKC 13/02 A2992 =
2018-04-26 09:47 METAR KFDK 261347Z 30010G15KT 10SM SKC 12/02 A2992 =
2018-04-26 08:47 METAR KFDK 261247Z 26011KT 10SM SKC 12/02 A2991 =
2018-04-26 07:47 METAR KFDK 261147Z 25003KT 10SM SKC 11/02 A2988 =
2018-04-26 06:55 METAR KFDK 261055Z 29006KT 10SM FEW060 09/01 A2986 =
2018-04-26 06:50 METAR KFDK 261050Z AUTO 28005KT 10SM CLR 09/01 A2986 RMK AO2 =
2018-04-26 06:35 METAR KFDK 261035Z AUTO 29004KT 10SM CLR 08/01 A2985 RMK AO2 =
2018-04-26 06:15 METAR KFDK 261015Z AUTO 27006KT 10SM CLR 08/01 A2985 RMK AO2 =
2018-04-26 05:55 METAR KFDK 260955Z AUTO 22004KT 10SM CLR 08/01 A2985 RMK AO2 =
2018-04-26 05:35 METAR KFDK 260935Z AUTO 25003KT 10SM CLR 09/01 A2985 RMK AO2 =
2018-04-26 05:15 METAR KFDK 260915Z AUTO 22006KT 10SM CLR 09/01 A2984 RMK AO2 =
2018-04-26 04:55 METAR KFDK 260855Z AUTO 26003KT 10SM CLR 09/01 A2984 RMK AO2 =
2018-04-26 04:35 METAR KFDK 260835Z AUTO 24007KT 190V270 10SM CLR 09/01 A2985 RMK AO2 =
2018-04-26 04:15 METAR KFDK 260815Z AUTO 33006KT 10SM CLR 10/01 A2984 RMK AO2 LTG DSNT E =
2018-04-26 03:55 METAR KFDK 260755Z AUTO 31006KT 10SM CLR 09/01 A2984 RMK AO2 LTG DSNT E AND SE =
2018-04-26 03:35 METAR KFDK 260735Z AUTO 30008KT 10SM CLR 09/01 A2983 RMK AO2 =
2018-04-26 03:15 METAR KFDK 260715Z AUTO 28005KT 10SM CLR 10/02 A2982 RMK AO2 =
2018-04-26 02:55 METAR KFDK 260655Z AUTO 31011KT 10SM CLR 10/01 A2981 RMK AO2 LTG DSNT E =

Support USWX by starting your Amazon purchase here.